Time;durP1;ratioP1;P1;durP2;ratioP2;P2;SDS_P1;SDS_P2;PMS_P1;PMS_P2;Temp;Humidity;BMP_temperature;BMP_pressure;BME280_temperature;BME280_humidity;BME280_pressure;Samples;Min_cycle;Max_cycle;Signal;HPM_P1;HPM_P2
2023/06/11 12:47:56;;;;;;;10.60;5.70;;;;;;;22.76;74.78;96483.13;5025033;28;20240;-68
2023/06/11 12:51:03;;;;;;;10.70;6.87;;;;;;;22.58;77.91;96478.78;5030020;28;20221;-67
2023/06/11 12:54:25;;;;;;;9.43;5.63;;;;;;;22.55;76.14;96472.94;5035423;28;20207;-67
2023/06/11 12:57:01;;;;;;;7.07;5.60;;;;;;;22.58;74.66;96473.50;5006725;28;20680;-67
2023/06/11 12:59:28;;;;;;;10.67;5.93;;;;;;;22.46;73.40;96476.53;5006932;28;20207;-69
2023/06/11 13:01:55;;;;;;;8.20;5.70;;;;;;;22.40;72.51;96454.22;5006739;28;20735;-69
2023/06/11 13:04:36;;;;;;;10.00;5.70;;;;;;;22.46;72.53;96473.91;5006787;28;20611;-67
2023/06/11 13:07:17;;;;;;;8.67;5.67;;;;;;;22.21;72.16;96472.09;5022828;28;20199;-67
2023/06/11 13:10:40;;;;;;;7.97;5.20;;;;;;;22.47;74.31;96484.28;5007852;28;20199;-67
2023/06/11 13:13:21;;;;;;;7.57;5.87;;;;;;;22.67;74.13;96476.19;5026227;28;20208;-70
2023/06/11 13:15:48;;;;;;;7.57;5.67;;;;;;;22.71;72.97;96482.78;5026208;28;20223;-67
2023/06/11 13:18:15;;;;;;;7.03;5.00;;;;;;;22.85;71.75;96472.47;5022344;28;20279;-68
2023/06/11 13:20:42;;;;;;;7.23;5.07;;;;;;;22.90;70.79;96470.16;5026546;28;20257;-66
2023/06/11 13:23:09;;;;;;;7.80;5.10;;;;;;;22.87;68.06;96461.72;5026472;28;20764;-67
2023/06/11 13:25:36;;;;;;;9.80;4.70;;;;;;;22.92;67.83;96459.41;5026894;28;20222;-66
2023/06/11 13:28:04;;;;;;;7.83;4.37;;;;;;;22.88;66.80;96464.22;5026278;28;20304;-70
2023/06/11 13:30:31;;;;;;;6.40;4.50;;;;;;;22.96;64.34;96458.13;5027059;28;20201;-69
2023/06/11 13:32:59;;;;;;;6.43;4.27;;;;;;;22.70;64.32;96450.28;5025859;28;20296;-71
2023/06/11 13:35:28;;;;;;;6.57;4.00;;;;;;;22.93;63.98;96450.53;5026673;28;20206;-68
2023/06/11 13:37:55;;;;;;;5.07;3.90;;;;;;;22.97;63.33;96462.41;5026610;28;20204;-67
2023/06/11 13:40:22;;;;;;;6.23;4.10;;;;;;;23.00;62.38;96459.47;5026368;28;20630;-72
2023/06/11 13:42:49;;;;;;;6.83;4.00;;;;;;;23.02;63.96;96460.94;5028833;28;20217;-68
2023/06/11 13:45:16;;;;;;;6.47;4.30;;;;;;;23.12;64.51;96447.63;5029887;28;20205;-73
2023/06/11 13:47:44;;;;;;;8.20;4.60;;;;;;;23.24;65.20;96449.78;5030717;28;20248;-69
2023/06/11 13:50:11;;;;;;;6.90;4.40;;;;;;;23.27;65.61;96460.03;5030121;28;20227;-75
2023/06/11 13:52:39;;;;;;;4.33;3.90;;;;;;;23.43;65.15;96454.00;5041009;28;20206;-83
2023/06/11 13:55:07;;;;;;;7.00;4.20;;;;;;;23.55;65.05;96452.69;5033806;28;20200;-75
2023/06/11 13:57:34;;;;;;;6.67;4.83;;;;;;;23.68;65.11;96468.84;5032674;28;20296;-85
2023/06/11 14:00:01;;;;;;;5.20;4.17;;;;;;;23.78;62.50;96468.72;5033271;28;20304;-83
2023/06/11 14:02:37;;;;;;;5.43;3.87;;;;;;;23.75;62.30;96475.16;5030816;28;20204;-78
2023/06/11 14:05:05;;;;;;;8.50;4.73;;;;;;;23.75;62.77;96469.03;5030440;28;20310;-80
2023/06/11 14:07:32;;;;;;;7.20;4.50;;;;;;;23.83;61.57;96466.38;5029731;28;20577;-83
2023/06/11 14:10:04;;;;;;;5.57;4.30;;;;;;;23.88;61.94;96458.78;5030534;28;20271;-75
2023/06/11 14:12:32;;;;;;;6.33;4.13;;;;;;;24.06;61.74;96457.66;5030343;28;20759;-87
2023/06/11 14:14:59;;;;;;;5.93;4.33;;;;;;;23.90;62.31;96446.22;5030823;28;20359;-85
2023/06/11 14:17:28;;;;;;;5.90;3.87;;;;;;;23.89;62.39;96455.97;5031114;28;20212;-88
2023/06/11 14:19:55;;;;;;;4.63;3.93;;;;;;;24.00;62.57;96453.00;5031737;28;20203;-74
2023/06/11 14:22:23;;;;;;;6.60;4.23;;;;;;;24.03;62.32;96447.38;5031068;28;20243;-87
2023/06/11 14:24:50;;;;;;;4.93;4.40;;;;;;;24.02;63.05;96448.38;5031095;28;20195;-88
2023/06/11 14:27:17;;;;;;;5.03;4.37;;;;;;;24.14;63.54;96449.69;5031168;28;20199;-85
2023/06/11 14:29:44;;;;;;;6.17;4.87;;;;;;;24.31;64.58;96462.91;5029896;28;20202;-81
2023/06/11 14:32:11;;;;;;;8.47;4.97;;;;;;;24.42;64.89;96459.91;5012054;28;20748;-82
2023/06/11 14:34:41;;;;;;;6.47;5.10;;;;;;;24.36;65.40;96453.44;5029970;28;20614;-81
2023/06/11 14:37:08;;;;;;;8.60;5.83;;;;;;;24.44;66.87;96460.56;5029856;28;20210;-80
2023/06/11 14:39:35;;;;;;;7.37;5.43;;;;;;;24.40;68.16;96462.69;5030150;28;20206;-83
2023/06/11 14:42:04;;;;;;;5.77;4.77;;;;;;;24.18;69.88;96445.72;5031630;28;20237;-83
2023/06/11 14:44:31;;;;;;;6.70;5.13;;;;;;;24.29;70.54;96472.81;5030228;28;20651;-84
2023/06/11 14:46:58;;;;;;;5.73;4.40;;;;;;;24.14;69.95;96470.88;5029251;28;20240;-86
2023/06/11 14:49:25;;;;;;;8.17;5.57;;;;;;;24.27;70.17;96466.88;5029704;28;20231;-82
2023/06/11 14:51:52;;;;;;;9.40;5.20;;;;;;;24.16;71.20;96468.88;5030470;28;20209;-82
2023/06/11 14:54:19;;;;;;;9.80;5.70;;;;;;;24.15;70.32;96456.63;5034204;28;20215;-81
2023/06/11 14:56:46;;;;;;;9.27;5.50;;;;;;;24.22;69.23;96457.63;5029939;28;20597;-86
2023/06/11 14:59:14;;;;;;;11.70;6.40;;;;;;;24.15;69.65;96461.91;5030081;28;20662;-86
2023/06/11 15:01:41;;;;;;;10.50;6.30;;;;;;;23.89;70.96;96455.97;5030278;28;20254;-82
2023/06/11 15:04:11;;;;;;;9.67;6.63;;;;;;;23.83;70.26;96448.69;5029079;28;20211;-83
2023/06/11 15:06:39;;;;;;;7.10;5.53;;;;;;;23.80;69.71;96451.66;5029321;28;20708;-80
2023/06/11 15:09:07;;;;;;;9.70;5.77;;;;;;;23.68;69.79;96439.78;5029152;28;20257;-86
2023/06/11 15:11:35;;;;;;;8.40;5.20;;;;;;;23.58;69.54;96448.84;5028943;28;20208;-85
2023/06/11 15:14:03;;;;;;;7.37;5.63;;;;;;;23.53;69.54;96446.72;5029207;28;20238;-83
2023/06/11 15:16:30;;;;;;;8.73;5.60;;;;;;;23.42;70.26;96457.59;5028895;28;20243;-85
2023/06/11 15:18:57;;;;;;;7.00;5.20;;;;;;;23.38;69.79;96451.00;5029599;28;20206;-81
2023/06/11 15:21:24;;;;;;;9.83;5.87;;;;;;;23.26;69.04;96413.47;5028784;28;20273;-87
2023/06/11 15:23:51;;;;;;;9.87;6.40;;;;;;;23.39;68.58;96444.69;5029541;28;20206;-87
2023/06/11 15:26:18;;;;;;;9.57;5.63;;;;;;;23.48;68.11;96451.66;5028690;28;20209;-77
2023/06/11 15:28:45;;;;;;;8.20;5.23;;;;;;;23.54;67.90;96448.38;5028857;28;20686;-82
2023/06/11 15:31:14;;;;;;;7.50;4.83;;;;;;;23.38;68.97;96451.00;5023857;28;20190;-76
2023/06/11 15:33:41;;;;;;;7.60;5.03;;;;;;;23.49;68.35;96445.41;5008991;28;20280;-81
2023/06/11 15:36:08;;;;;;;8.97;5.27;;;;;;;23.43;69.29;96446.06;5009613;28;20227;-85
2023/06/11 15:38:35;;;;;;;8.27;4.70;;;;;;;23.48;69.20;96440.25;5008853;28;20206;-79
2023/06/11 15:41:02;;;;;;;5.97;4.83;;;;;;;23.28;68.85;96445.84;5008938;28;20227;-87
2023/06/11 15:43:29;;;;;;;6.23;4.93;;;;;;;23.30;68.63;96440.38;5008901;28;20225;-83
2023/06/11 15:45:56;;;;;;;10.77;5.37;;;;;;;23.20;68.72;96453.75;5009041;28;20380;-84
2023/06/11 15:48:24;;;;;;;12.27;5.50;;;;;;;23.50;68.24;96464.72;5009018;28;20197;-87
2023/06/11 15:50:51;;;;;;;9.27;5.50;;;;;;;23.40;68.61;96465.72;5008706;28;20207;-79
2023/06/11 15:53:19;;;;;;;8.33;6.33;;;;;;;23.29;68.28;96467.78;5013547;28;20200;-76
2023/06/11 15:55:46;;;;;;;11.27;5.03;;;;;;;23.48;67.73;96470.16;5009438;28;20211;-71
2023/06/11 15:58:15;;;;;;;7.40;4.33;;;;;;;23.36;67.34;96472.31;5022009;28;20829;-70
2023/06/11 16:00:44;;;;;;;6.73;4.20;;;;;;;23.57;66.62;96468.38;5027944;28;20286;-78
2023/06/11 16:03:13;;;;;;;7.93;4.83;;;;;;;23.40;66.13;96475.44;5028310;28;20198;-72
2023/06/11 16:05:40;;;;;;;6.23;4.70;;;;;;;23.39;66.73;96482.53;5027293;28;20296;-68
2023/06/11 16:08:08;;;;;;;4.97;4.33;;;;;;;23.40;66.14;96480.72;5027623;28;21537;-81
2023/06/11 16:10:35;;;;;;;7.63;4.50;;;;;;;23.29;66.30;96479.19;5028459;28;20589;-75
2023/06/11 16:13:02;;;;;;;12.80;5.23;;;;;;;23.41;66.49;96483.19;5027216;28;20234;-67
2023/06/11 16:15:29;;;;;;;6.23;4.50;;;;;;;23.30;64.60;96478.22;5027974;28;20209;-66
2023/06/11 16:17:56;;;;;;;5.97;4.50;;;;;;;23.03;66.22;96477.63;5027204;28;20212;-67
2023/06/11 16:20:23;;;;;;;8.80;4.63;;;;;;;22.51;66.96;96493.53;5027654;28;20217;-69
2023/06/11 16:22:50;;;;;;;6.03;4.97;;;;;;;22.63;68.40;96505.53;5027232;28;20324;-71
2023/06/11 16:25:19;;;;;;;6.40;4.83;;;;;;;22.50;68.11;96502.44;5027330;28;20217;-69
2023/06/11 16:27:49;;;;;;;6.57;5.60;;;;;;;22.61;66.81;96510.13;5027716;28;20209;-69
2023/06/11 16:30:16;;;;;;;6.10;4.80;;;;;;;22.26;68.41;96514.66;5027045;28;20203;-66
2023/06/11 16:32:44;;;;;;;16.43;9.03;;;;;;;22.08;69.33;96496.22;5027770;28;20206;-67
2023/06/11 16:35:11;;;;;;;8.80;6.27;;;;;;;22.26;69.86;96507.56;5027063;28;20624;-67
2023/06/11 16:37:40;;;;;;;7.10;5.33;;;;;;;22.13;69.52;96504.53;5027413;28;20218;-70
2023/06/11 16:40:08;;;;;;;11.37;5.83;;;;;;;22.24;69.43;96501.63;5013076;28;20670;-71
2023/06/11 16:42:35;;;;;;;13.47;5.67;;;;;;;22.16;69.98;96504.19;5029553;28;20237;-70
2023/06/11 16:45:02;;;;;;;10.50;5.73;;;;;;;22.12;69.97;96496.75;5034257;28;20208;-67
2023/06/11 16:47:31;;;;;;;6.97;5.27;;;;;;;22.05;70.53;96501.81;5038678;28;20275;-72
2023/06/11 16:49:59;;;;;;;8.77;5.80;;;;;;;22.34;70.19;96502.34;5039991;28;20206;-69
2023/06/11 16:52:27;;;;;;;11.13;5.97;;;;;;;22.61;68.67;96501.38;5036453;28;20216;-67
2023/06/11 16:54:57;;;;;;;11.30;6.07;;;;;;;22.75;68.01;96500.78;5039815;28;20228;-69
2023/06/11 16:57:24;;;;;;;12.00;6.03;;;;;;;22.76;68.48;96499.81;5042148;28;20215;-74
2023/06/11 16:59:52;;;;;;;8.03;5.47;;;;;;;22.91;67.26;96500.03;5042406;28;20218;-76
2023/06/11 17:02:19;;;;;;;10.73;5.83;;;;;;;22.94;67.00;96499.69;5037377;28;20232;-80
2023/06/11 17:04:46;;;;;;;9.80;5.73;;;;;;;22.86;67.05;96484.66;5029664;28;20262;-78
2023/06/11 17:07:14;;;;;;;8.63;6.30;;;;;;;22.43;69.40;96501.41;5030660;28;20220;-80
2023/06/11 17:09:42;;;;;;;10.83;5.60;;;;;;;22.38;70.74;96519.50;5025308;28;20243;-67
2023/06/11 17:12:11;;;;;;;8.80;5.70;;;;;;;22.32;72.20;96514.84;5015178;28;20215;-69
2023/06/11 17:14:38;;;;;;;6.93;5.53;;;;;;;22.40;71.53;96499.06;5011708;28;20753;-73
2023/06/11 17:17:05;;;;;;;9.17;5.57;;;;;;;22.45;71.38;96511.81;5012869;28;20580;-79
2023/06/11 17:19:33;;;;;;;8.43;5.97;;;;;;;22.62;69.88;96503.88;5009341;28;20226;-78
2023/06/11 17:22:00;;;;;;;7.27;5.87;;;;;;;22.65;70.57;96505.34;5023380;28;20274;-71
2023/06/11 17:24:27;;;;;;;13.03;5.63;;;;;;;22.65;70.28;96511.47;5029010;28;20201;-67
2023/06/11 17:26:55;;;;;;;12.53;6.20;;;;;;;22.67;70.38;96516.59;5028804;28;20209;-71
2023/06/11 17:29:22;;;;;;;5.73;5.23;;;;;;;22.60;71.06;96523.50;5011760;28;20205;-80
2023/06/11 17:31:49;;;;;;;9.83;6.23;;;;;;;22.50;71.08;96505.06;5029216;28;20211;-82
2023/06/11 17:34:16;;;;;;;7.93;6.27;;;;;;;22.40;72.87;96528.09;5027318;28;20198;-72
2023/06/11 17:36:43;;;;;;;9.00;6.07;;;;;;;21.92;75.00;96532.19;5031871;28;20262;-79
2023/06/11 17:39:11;;;;;;;7.40;6.63;;;;;;;21.58;76.84;96524.09;5028432;28;20204;-70
2023/06/11 17:41:38;;;;;;;7.57;5.93;;;;;;;21.57;77.29;96533.00;5030101;28;20327;-68
2023/06/11 17:44:05;;;;;;;7.37;5.77;;;;;;;21.69;76.49;96531.78;5025517;28;20205;-72
2023/06/11 17:46:33;;;;;;;7.77;6.60;;;;;;;21.79;75.60;96522.84;5029339;28;20334;-71
2023/06/11 17:49:00;;;;;;;7.30;5.87;;;;;;;21.93;75.28;96532.03;5024079;28;20200;-67
2023/06/11 17:51:27;;;;;;;11.83;6.27;;;;;;;22.02;74.48;96527.66;5026751;28;20268;-68
2023/06/11 17:53:55;;;;;;;9.20;6.10;;;;;;;22.10;74.23;96517.16;5008352;28;20295;-67
2023/06/11 17:56:22;;;;;;;8.20;5.67;;;;;;;22.17;74.33;96526.13;5026232;28;20211;-67
2023/06/11 17:58:49;;;;;;;12.93;6.50;;;;;;;22.14;74.46;96524.63;5026460;28;20212;-68
2023/06/11 18:01:16;;;;;;;9.00;6.23;;;;;;;22.15;74.99;96525.47;5026793;28;20200;-69
2023/06/11 18:03:47;;;;;;;8.10;6.17;;;;;;;22.15;75.46;96528.09;5028003;28;20207;-76
2023/06/11 18:06:15;;;;;;;9.37;5.77;;;;;;;21.90;76.79;96527.09;5026834;28;20207;-78
2023/06/11 18:08:44;;;;;;;8.53;6.13;;;;;;;21.73;77.11;96517.34;5026635;28;20210;-75
2023/06/11 18:11:11;;;;;;;8.77;6.00;;;;;;;21.74;77.39;96508.47;5033958;28;20701;-76
2023/06/11 18:13:39;;;;;;;10.87;6.90;;;;;;;21.69;77.40;96508.06;5046191;28;20788;-70
2023/06/11 18:16:07;;;;;;;9.83;6.13;;;;;;;21.74;77.34;96508.47;5046124;28;20216;-75
2023/06/11 18:18:34;;;;;;;11.03;6.00;;;;;;;21.73;77.45;96518.16;5046141;28;20203;-68
2023/06/11 18:21:01;;;;;;;7.80;5.93;;;;;;;21.86;76.58;96523.09;5028535;28;20209;-71
2023/06/11 18:23:28;;;;;;;8.77;6.83;;;;;;;21.97;76.01;96516.75;5024399;28;20236;-79
2023/06/11 18:25:55;;;;;;;7.97;6.57;;;;;;;21.95;75.45;96519.53;5026160;28;20249;-78
2023/06/11 18:28:23;;;;;;;9.13;5.90;;;;;;;21.83;75.63;96523.38;5024809;28;20197;-72
2023/06/11 18:30:54;;;;;;;10.80;6.07;;;;;;;21.70;75.89;96518.47;5028445;28;20707;-69
2023/06/11 18:33:22;;;;;;;11.20;5.83;;;;;;;21.49;76.81;96515.31;5028021;28;20200;-69
2023/06/11 18:35:49;;;;;;;9.43;5.87;;;;;;;21.41;77.38;96525.75;5009661;28;20206;-73
2023/06/11 18:38:18;;;;;;;8.83;6.37;;;;;;;21.38;77.63;96523.41;5009768;28;20259;-69
2023/06/11 18:40:48;;;;;;;11.13;6.07;;;;;;;21.29;77.85;96519.03;4991747;28;20685;-71
2023/06/11 18:43:16;;;;;;;6.63;5.93;;;;;;;21.36;77.67;96529.81;5025049;28;20227;-73
2023/06/11 18:45:46;;;;;;;7.70;6.40;;;;;;;21.39;78.17;96529.53;5013724;28;20214;-75
2023/06/11 18:48:13;;;;;;;16.60;7.30;;;;;;;21.47;78.11;96524.34;5013298;28;20216;-74
2023/06/11 18:50:41;;;;;;;12.67;7.67;;;;;;;21.50;78.41;96521.38;5023785;28;20229;-70
2023/06/11 18:53:10;;;;;;;20.53;7.30;;;;;;;21.53;78.19;96513.19;4994550;28;20194;-67
2023/06/11 18:55:37;;;;;;;8.60;7.30;;;;;;;21.53;78.58;96515.84;5011598;28;20203;-74
2023/06/11 18:58:05;;;;;;;10.40;6.07;;;;;;;21.40;78.69;96531.16;5018084;28;20292;-71
2023/06/11 19:00:35;;;;;;;9.40;6.10;;;;;;;21.14;79.68;96538.13;5022809;28;20204;-71
2023/06/11 19:03:02;;;;;;;7.87;5.27;;;;;;;21.17;78.74;96540.44;5018320;28;20224;-72
2023/06/11 19:05:30;;;;;;;12.67;5.90;;;;;;;21.05;78.95;96538.03;5019412;28;20286;-68
2023/06/11 19:07:57;;;;;;;7.37;5.30;;;;;;;20.93;79.37;96544.44;5017800;28;20694;-68
2023/06/11 19:10:24;;;;;;;7.80;5.60;;;;;;;20.95;78.79;96545.13;5017564;28;20207;-66
2023/06/11 19:12:53;;;;;;;8.63;5.17;;;;;;;21.01;78.66;96541.91;5019453;28;20590;-68
2023/06/11 19:15:21;;;;;;;8.37;5.40;;;;;;;21.08;78.49;96556.16;5017594;28;20767;-67
2023/06/11 19:17:48;;;;;;;9.50;5.30;;;;;;;21.04;78.41;96541.63;5017371;28;20241;-67
2023/06/11 19:20:15;;;;;;;8.20;5.33;;;;;;;20.99;79.11;96543.03;5018838;28;20207;-67
2023/06/11 19:22:43;;;;;;;9.07;5.70;;;;;;;20.78;79.66;96532.72;5018300;28;20253;-67
2023/06/11 19:25:11;;;;;;;8.67;5.50;;;;;;;20.98;79.08;96551.88;5016671;28;20213;-70
2023/06/11 19:27:38;;;;;;;6.70;5.20;;;;;;;21.00;78.97;96549.94;5020004;28;20228;-78
2023/06/11 19:30:05;;;;;;;8.30;5.90;;;;;;;21.13;78.34;96557.53;5009424;28;20296;-76
2023/06/11 19:32:33;;;;;;;9.27;5.77;;;;;;;21.00;79.04;96561.31;5018351;28;20210;-68
2023/06/11 19:35:00;;;;;;;9.33;6.53;;;;;;;20.77;79.93;96565.25;5024935;28;20301;-71
2023/06/11 19:37:29;;;;;;;8.20;6.53;;;;;;;20.68;80.32;96571.41;5026459;28;20214;-76
2023/06/11 19:39:56;;;;;;;7.30;6.13;;;;;;;20.66;80.58;96568.09;5027490;28;20701;-75
2023/06/11 19:42:23;;;;;;;7.20;5.70;;;;;;;20.76;79.83;96574.16;5028301;28;20241;-77
2023/06/11 19:44:50;;;;;;;9.47;6.27;;;;;;;20.71;79.86;96579.00;5028243;28;20214;-73
2023/06/11 19:47:17;;;;;;;10.27;5.53;;;;;;;20.66;79.30;96552.31;5028519;28;20226;-79
2023/06/11 19:49:44;;;;;;;7.80;6.33;;;;;;;21.04;78.79;96580.31;5027713;28;20206;-76
2023/06/11 19:52:11;;;;;;;7.70;6.00;;;;;;;21.01;78.20;96572.66;5028413;28;20210;-73
2023/06/11 19:54:38;;;;;;;7.60;5.67;;;;;;;21.08;78.30;96578.22;5027719;28;20223;-77
2023/06/11 19:57:17;;;;;;;8.77;6.03;;;;;;;21.05;78.80;96581.97;5028021;28;20206;-75
2023/06/11 19:59:44;;;;;;;7.07;5.83;;;;;;;20.99;79.17;96567.56;5028017;28;20289;-74
2023/06/11 20:02:11;;;;;;;6.87;5.77;;;;;;;21.02;79.20;96579.59;5027751;28;20657;-75
2023/06/11 20:04:39;;;;;;;12.77;7.77;;;;;;;21.03;79.36;96566.31;5028171;28;20202;-75
2023/06/11 20:07:07;;;;;;;10.27;7.23;;;;;;;21.03;80.12;96568.13;5027532;28;20211;-68
2023/06/11 20:09:34;;;;;;;8.03;7.07;;;;;;;20.83;80.67;96569.97;5028144;28;20694;-72
2023/06/11 20:12:08;;;;;;;10.07;6.53;;;;;;;20.55;81.69;96552.47;5027572;28;20702;-74
2023/06/11 20:14:36;;;;;;;9.53;6.30;;;;;;;20.68;81.52;96566.16;5027741;28;20698;-74
2023/06/11 20:17:04;;;;;;;8.90;7.00;;;;;;;20.77;81.72;96560.00;5027744;28;20268;-73
2023/06/11 20:19:33;;;;;;;9.27;6.53;;;;;;;20.88;81.27;96573.00;5027705;28;20301;-81
2023/06/11 20:22:02;;;;;;;12.07;7.80;;;;;;;20.52;82.00;96565.94;5027899;28;20215;-72
2023/06/11 20:24:30;;;;;;;7.77;6.37;;;;;;;20.41;82.62;96563.44;5027097;28;20686;-74
2023/06/11 20:26:57;;;;;;;8.77;6.40;;;;;;;20.17;84.14;96555.16;5027752;28;20217;-71
2023/06/11 20:29:24;;;;;;;9.47;6.27;;;;;;;20.40;83.13;96542.56;5027080;28;20207;-73
2023/06/11 20:31:51;;;;;;;6.87;6.27;;;;;;;20.27;83.25;96519.19;5027674;28;20202;-66
2023/06/11 20:34:18;;;;;;;9.33;6.20;;;;;;;20.59;81.51;96553.00;5027211;28;20194;-67
2023/06/11 20:36:45;;;;;;;13.77;7.23;;;;;;;20.71;81.16;96555.31;5027095;28;20636;-67
2023/06/11 20:39:12;;;;;;;9.70;6.93;;;;;;;20.11;84.21;96551.28;5027601;28;20705;-71
2023/06/11 20:41:39;;;;;;;10.07;6.70;;;;;;;20.12;84.60;96537.16;5028879;28;20219;-74
2023/06/11 20:44:07;;;;;;;10.47;7.17;;;;;;;20.23;83.79;96533.59;5042939;28;20737;-68
2023/06/11 20:46:35;;;;;;;9.57;6.53;;;;;;;20.33;83.15;96533.56;5046212;28;20765;-73
2023/06/11 20:49:02;;;;;;;8.40;6.80;;;;;;;20.12;82.51;96520.56;5047154;28;20275;-65
2023/06/11 20:51:29;;;;;;;8.13;6.73;;;;;;;19.66;85.45;96530.97;5046320;28;20221;-65
2023/06/11 20:53:56;;;;;;;13.10;8.00;;;;;;;19.37;87.27;96538.84;5045299;28;20421;-67
2023/06/11 20:56:23;;;;;;;9.83;6.93;;;;;;;19.55;86.73;96521.44;5047086;28;20622;-70
2023/06/11 20:58:50;;;;;;;8.97;6.60;;;;;;;19.79;85.20;96526.25;5046468;28;20240;-67
2023/06/11 21:01:17;;;;;;;9.23;6.97;;;;;;;19.74;85.58;96539.00;5047443;28;20237;-68
2023/06/11 21:03:44;;;;;;;9.13;6.97;;;;;;;19.32;88.25;96522.63;5046247;28;20241;-68
2023/06/11 21:06:11;;;;;;;10.60;8.53;;;;;;;19.41;87.53;96509.50;5029080;28;20220;-67
2023/06/11 21:08:38;;;;;;;11.07;7.57;;;;;;;19.74;86.39;96534.56;5046507;28;20795;-68
2023/06/11 21:11:05;;;;;;;9.37;7.57;;;;;;;20.02;84.74;96535.53;5046537;28;20604;-66
2023/06/11 21:13:32;;;;;;;10.30;6.90;;;;;;;19.73;84.73;96546.03;5046727;28;20207;-66
2023/06/11 21:15:59;;;;;;;9.17;7.53;;;;;;;19.70;85.17;96538.44;5046261;28;20204;-67
2023/06/11 21:18:26;;;;;;;8.53;7.07;;;;;;;19.85;84.02;96528.31;5046896;28;20573;-70
2023/06/11 21:20:54;;;;;;;8.00;6.67;;;;;;;19.95;83.31;96534.41;5046161;28;20248;-69
2023/06/11 21:23:21;;;;;;;9.50;6.90;;;;;;;20.19;82.27;96529.56;5047075;28;20229;-67
2023/06/11 21:25:49;;;;;;;10.53;6.60;;;;;;;20.32;80.92;96532.72;5046283;28;20223;-67
2023/06/11 21:28:16;;;;;;;11.90;7.13;;;;;;;20.28;81.37;96526.09;5046469;28;20216;-66
2023/06/11 21:30:45;;;;;;;12.03;7.30;;;;;;;20.30;81.31;96521.50;5046221;28;20249;-67
2023/06/11 21:33:12;;;;;;;7.93;7.10;;;;;;;20.29;81.45;96519.88;5046002;28;20232;-69
2023/06/11 21:35:39;;;;;;;8.93;7.03;;;;;;;20.18;80.96;96525.25;5046447;28;20198;-66
2023/06/11 21:38:06;;;;;;;8.17;7.10;;;;;;;20.13;81.13;96522.22;5046045;28;20209;-67
2023/06/11 21:40:33;;;;;;;11.07;7.10;;;;;;;20.02;81.72;96511.84;5046828;28;20205;-66
2023/06/11 21:43:00;;;;;;;11.27;6.67;;;;;;;20.04;80.99;96504.66;5045799;28;20716;-73
2023/06/11 21:45:28;;;;;;;9.77;7.40;;;;;;;20.20;80.98;96521.53;5046362;28;20579;-67
2023/06/11 21:47:55;;;;;;;9.23;6.83;;;;;;;19.94;81.92;96506.47;5045872;28;20236;-66
2023/06/11 21:50:22;;;;;;;10.17;7.57;;;;;;;19.30;84.72;96528.00;5045917;28;20642;-67
2023/06/11 21:52:52;;;;;;;8.50;7.00;;;;;;;19.17;85.46;96527.44;5046553;28;20210;-68
2023/06/11 21:55:19;;;;;;;8.63;7.30;;;;;;;19.29;85.77;96509.75;5045705;28;20941;-67
2023/06/11 21:57:47;;;;;;;8.90;6.63;;;;;;;19.56;84.15;96509.13;5046727;28;20216;-67
2023/06/11 22:00:14;;;;;;;10.47;6.77;;;;;;;19.77;82.99;96504.53;5026490;28;20214;-66
2023/06/11 22:02:43;;;;;;;11.30;7.10;;;;;;;19.85;82.37;96505.50;5026627;28;20790;-66
2023/06/11 22:05:13;;;;;;;10.80;7.03;;;;;;;19.81;82.55;96516.44;5041129;28;20279;-67
2023/06/11 22:07:40;;;;;;;8.50;7.10;;;;;;;19.88;81.90;96517.56;5047607;28;20618;-66
2023/06/11 22:10:08;;;;;;;9.03;7.00;;;;;;;19.83;81.40;96519.75;5030150;28;20202;-66
2023/06/11 22:12:39;;;;;;;7.33;6.63;;;;;;;19.62;82.26;96508.59;5012142;28;20296;-67
2023/06/11 22:15:11;;;;;;;8.43;6.97;;;;;;;19.45;82.74;96495.16;5030343;28;20599;-66
2023/06/11 22:17:38;;;;;;;11.07;7.27;;;;;;;19.60;82.34;96500.00;5029500;28;20198;-67
2023/06/11 22:20:08;;;;;;;8.83;7.27;;;;;;;19.64;82.05;96494.31;5030353;28;20208;-67
2023/06/11 22:22:39;;;;;;;7.73;6.70;;;;;;;19.53;82.47;96496.25;5029993;28;20225;-66
2023/06/11 22:25:10;;;;;;;8.70;6.90;;;;;;;19.63;81.17;96500.56;5030178;28;20644;-68
2023/06/11 22:27:40;;;;;;;9.90;7.10;;;;;;;19.62;81.28;96490.19;5030469;28;20231;-69
2023/06/11 22:30:09;;;;;;;7.57;6.77;;;;;;;19.39;82.54;96497.50;5029529;28;20273;-68
2023/06/11 22:32:37;;;;;;;9.50;7.07;;;;;;;19.43;82.80;96489.19;5030045;28;20214;-74
2023/06/11 22:35:04;;;;;;;11.60;7.50;;;;;;;19.47;82.80;96485.31;5029562;28;20698;-80
2023/06/11 22:37:33;;;;;;;8.97;7.57;;;;;;;19.41;83.21;96475.38;5029675;28;20212;-67
2023/06/11 22:40:01;;;;;;;8.33;7.30;;;;;;;19.42;83.30;96473.59;5029434;28;20214;-75
2023/06/11 22:42:29;;;;;;;9.57;7.17;;;;;;;19.56;82.33;96477.63;5029284;28;20209;-79
2023/06/11 22:44:56;;;;;;;9.50;7.53;;;;;;;19.54;82.61;96476.94;5029792;28;20235;-74
2023/06/11 22:47:23;;;;;;;11.10;7.33;;;;;;;19.59;82.22;96472.06;5028779;28;20236;-69
2023/06/11 22:49:50;;;;;;;10.40;6.83;;;;;;;19.47;83.25;96466.94;5032540;28;20202;-73
2023/06/11 22:52:18;;;;;;;8.90;7.57;;;;;;;19.65;82.15;96469.72;5048734;28;20221;-73
2023/06/11 22:54:45;;;;;;;9.57;7.37;;;;;;;19.44;82.43;96464.59;5043205;28;20237;-74
2023/06/11 22:57:12;;;;;;;10.80;7.47;;;;;;;19.37;83.06;96468.75;5028984;28;20724;-73
2023/06/11 22:59:39;;;;;;;9.13;7.07;;;;;;;19.41;82.04;96461.44;5028938;28;20206;-71
2023/06/11 23:02:06;;;;;;;8.03;6.67;;;;;;;19.08;83.18;96459.16;5029490;28;20259;-74
2023/06/11 23:04:34;;;;;;;13.07;6.93;;;;;;;19.21;82.59;96454.47;5028645;28;20247;-78
2023/06/11 23:07:04;;;;;;;11.87;7.03;;;;;;;19.13;82.26;96451.69;5029607;28;20209;-78
2023/06/11 23:09:31;;;;;;;10.50;7.30;;;;;;;19.32;81.76;96455.19;5028703;28;20658;-73
2023/06/11 23:11:59;;;;;;;11.20;6.87;;;;;;;19.09;81.69;96440.66;5029119;28;20751;-67
2023/06/11 23:14:26;;;;;;;16.33;8.10;;;;;;;18.98;82.44;96446.00;5029677;28;20205;-71
2023/06/11 23:16:57;;;;;;;8.97;7.13;;;;;;;19.09;81.90;96450.31;5029175;28;20359;-75
2023/06/11 23:19:24;;;;;;;9.20;7.43;;;;;;;18.96;82.03;96442.69;5029031;28;20272;-78
2023/06/11 23:21:55;;;;;;;11.73;7.20;;;;;;;18.97;82.14;96449.63;5028488;28;20200;-74
2023/06/11 23:24:26;;;;;;;11.83;6.93;;;;;;;19.08;81.63;96444.22;5028990;28;20323;-74
2023/06/11 23:26:56;;;;;;;11.97;7.93;;;;;;;19.01;81.54;96443.13;5028350;28;20216;-69
2023/06/11 23:29:23;;;;;;;10.00;7.17;;;;;;;18.75;82.02;96444.59;5028620;28;20208;-71
2023/06/11 23:31:50;;;;;;;8.90;7.40;;;;;;;18.47;82.84;96443.53;5028486;28;20288;-68
2023/06/11 23:34:18;;;;;;;8.03;7.23;;;;;;;18.55;82.63;96448.94;5028358;28;20593;-69
2023/06/11 23:36:46;;;;;;;12.40;7.73;;;;;;;18.47;82.88;96447.94;5028577;28;20209;-67
2023/06/11 23:39:14;;;;;;;12.23;7.87;;;;;;;18.39;83.07;96455.63;5028140;28;20533;-70
2023/06/11 23:41:41;;;;;;;9.03;6.93;;;;;;;18.36;83.48;96442.78;5028973;28;20197;-70
2023/06/11 23:44:09;;;;;;;10.47;7.30;;;;;;;18.63;82.56;96437.78;5027845;28;20714;-71
2023/06/11 23:46:36;;;;;;;9.90;7.37;;;;;;;18.65;81.93;96436.69;5028288;28;20322;-71
2023/06/11 23:49:04;;;;;;;12.80;7.70;;;;;;;18.57;81.72;96433.91;5027937;28;20695;-73
2023/06/11 23:51:32;;;;;;;9.17;7.13;;;;;;;18.31;83.12;96444.97;5027932;28;20196;-68
2023/06/11 23:53:59;;;;;;;11.40;7.87;;;;;;;18.26;83.16;96441.94;5027889;28;20227;-70
2023/06/11 23:56:29;;;;;;;13.00;7.80;;;;;;;18.35;82.64;96439.34;5027531;28;20215;-69
2023/06/11 23:58:56;;;;;;;9.70;7.73;;;;;;;18.37;81.76;96447.91;5028549;28;20196;-68
